Time;durP1;ratioP1;P1;durP2;ratioP2;P2;SDS_P1;SDS_P2;PMS_P1;PMS_P2;Temp;Humidity;BMP_temperature;BMP_pressure;BME280_temperature;BME280_humidity;BME280_pressure;Samples;Min_cycle;Max_cycle;Signal;HPM_P1;HPM_P2
2022/07/28 00:01:56;;;;;;;8.10;1.30;;;25.50;40.80;;;;;;5056030;28;20498;-78
2022/07/28 00:04:24;;;;;;;4.10;1.00;;;25.40;40.70;;;;;;5071927;28;20491;-78
2022/07/28 00:06:52;;;;;;;1.60;1.10;;;25.20;40.70;;;;;;5072417;28;20450;-78
2022/07/28 00:09:20;;;;;;;0.93;0.90;;;25.20;40.80;;;;;;5075213;28;20816;-78
2022/07/28 00:11:48;;;;;;;2.57;0.90;;;25.00;40.80;;;;;;5078529;28;20423;-78
2022/07/28 00:14:21;;;;;;;1.93;1.20;;;25.00;40.80;;;;;;5063632;28;20510;-78
2022/07/28 00:16:50;;;;;;;1.53;1.10;;;24.90;40.90;;;;;;5058916;28;20417;-78
2022/07/28 00:19:19;;;;;;;1.83;1.10;;;24.90;40.80;;;;;;5059086;28;20438;-78
2022/07/28 00:21:46;;;;;;;1.20;1.10;;;24.80;40.70;;;;;;5058636;28;20466;-78
2022/07/28 00:24:14;;;;;;;3.27;1.00;;;24.70;40.60;;;;;;5058531;28;20466;-78
2022/07/28 00:26:43;;;;;;;1.63;0.90;;;24.70;40.40;;;;;;5059761;28;20477;-78
2022/07/28 00:29:13;;;;;;;1.70;1.07;;;24.60;40.50;;;;;;5073233;28;20495;-78
2022/07/28 00:31:41;;;;;;;2.00;1.00;;;24.60;40.60;;;;;;5078795;28;20426;-78
2022/07/28 00:34:11;;;;;;;4.30;0.90;;;24.60;40.30;;;;;;5078885;28;20537;-78
2022/07/28 00:36:39;;;;;;;1.50;1.00;;;24.60;40.40;;;;;;5080143;28;20438;-78
2022/07/28 00:39:07;;;;;;;5.73;1.00;;;24.50;40.20;;;;;;5080158;28;20477;-78
2022/07/28 00:41:36;;;;;;;1.00;0.80;;;24.40;40.40;;;;;;5079756;28;20445;-78
2022/07/28 00:44:05;;;;;;;1.63;1.00;;;24.40;40.20;;;;;;5079407;28;20556;-78
2022/07/28 00:46:33;;;;;;;1.23;0.80;;;24.40;40.20;;;;;;5067611;28;20457;-78
2022/07/28 00:49:01;;;;;;;2.20;0.73;;;24.40;40.00;;;;;;5058830;28;20828;-78
2022/07/28 00:51:31;;;;;;;1.43;0.90;;;24.30;39.90;;;;;;5059352;28;20502;-78
2022/07/28 00:53:59;;;;;;;1.20;0.80;;;24.30;39.90;;;;;;5057651;28;20482;-78
2022/07/28 00:56:26;;;;;;;0.90;0.90;;;24.30;40.00;;;;;;5056913;28;20443;-78
2022/07/28 00:58:54;;;;;;;2.30;0.90;;;24.30;39.90;;;;;;5059423;28;20444;-78
2022/07/28 01:01:23;;;;;;;1.70;0.90;;;24.20;39.70;;;;;;5064598;28;20521;-78
2022/07/28 01:03:53;;;;;;;0.70;0.70;;;24.10;39.90;;;;;;5078568;28;20465;-78
2022/07/28 01:06:43;;;;;;;0.93;0.87;;;24.10;39.80;;;;;;5077099;28;20482;-78
2022/07/28 01:09:19;;;;;;;1.00;0.90;;;24.10;39.80;;;;;;5068259;28;20476;-78
2022/07/28 01:11:51;;;;;;;0.90;0.90;;;24.10;39.60;;;;;;5078100;28;20478;-78
2022/07/28 01:14:23;;;;;;;1.07;1.07;;;24.10;39.70;;;;;;5076850;28;20573;-78
2022/07/28 01:16:59;;;;;;;1.23;0.90;;;24.00;39.50;;;;;;5077403;28;20434;-78
2022/07/28 01:19:36;;;;;;;1.13;0.90;;;24.00;39.50;;;;;;5076509;28;20564;-78
2022/07/28 01:22:04;;;;;;;0.80;0.80;;;23.90;39.60;;;;;;5075771;28;20493;-78
2022/07/28 01:24:40;;;;;;;1.00;1.00;;;23.90;39.60;;;;;;5076357;28;20458;-78
2022/07/28 01:27:09;;;;;;;2.73;0.87;;;23.90;39.40;;;;;;5076378;28;20439;-78
2022/07/28 01:29:57;;;;;;;1.33;0.77;;;23.90;39.30;;;;;;5076972;28;20516;-78
2022/07/28 01:32:27;;;;;;;1.83;1.00;;;23.90;39.40;;;;;;5074897;28;20533;-78
2022/07/28 01:34:57;;;;;;;1.10;0.90;;;23.90;39.50;;;;;;5075145;28;20462;-78
2022/07/28 01:37:26;;;;;;;0.80;0.80;;;23.90;39.20;;;;;;5069676;28;20488;-78
2022/07/28 01:39:55;;;;;;;0.70;0.70;;;23.80;39.30;;;;;;5057342;28;20435;-78
2022/07/28 01:42:23;;;;;;;1.40;0.97;;;23.90;39.20;;;;;;5057313;28;20534;-78
2022/07/28 01:44:51;;;;;;;3.90;1.30;;;23.80;39.00;;;;;;5056844;28;20519;-78
2022/07/28 01:47:19;;;;;;;1.27;0.90;;;23.80;39.20;;;;;;5057541;28;20525;-78
2022/07/28 01:49:49;;;;;;;1.53;0.80;;;23.70;39.00;;;;;;5057200;28;20449;-78
2022/07/28 01:52:17;;;;;;;1.63;0.80;;;23.70;39.00;;;;;;5076849;28;20433;-78
2022/07/28 01:54:45;;;;;;;0.80;0.73;;;23.70;39.10;;;;;;5075701;28;20504;-78
2022/07/28 01:57:15;;;;;;;1.10;1.00;;;23.70;39.00;;;;;;5075707;28;20438;-78
2022/07/28 01:59:43;;;;;;;1.23;0.80;;;23.70;38.90;;;;;;5075832;28;20505;-78
2022/07/28 02:02:11;;;;;;;0.80;0.80;;;23.70;38.90;;;;;;5075546;28;20433;-78
2022/07/28 02:04:40;;;;;;;1.47;0.80;;;23.70;38.90;;;;;;5074468;28;20557;-77
2022/07/28 02:07:09;;;;;;;0.87;0.83;;;23.60;38.90;;;;;;5061321;28;20441;-77
2022/07/28 02:09:37;;;;;;;2.20;0.80;;;23.60;38.80;;;;;;5063871;28;20462;-78
2022/07/28 02:12:06;;;;;;;0.80;0.80;;;23.60;38.90;;;;;;5074708;28;20532;-78
2022/07/28 02:14:35;;;;;;;2.30;1.10;;;23.60;38.70;;;;;;5076160;28;20477;-78
2022/07/28 02:17:06;;;;;;;2.37;1.00;;;23.50;38.80;;;;;;5076552;28;20498;-78
2022/07/28 02:19:34;;;;;;;2.00;0.90;;;23.50;38.80;;;;;;5076859;28;20437;-78
2022/07/28 02:22:02;;;;;;;0.90;0.90;;;23.50;38.80;;;;;;5077310;28;20412;-78
2022/07/28 02:24:31;;;;;;;1.57;0.97;;;23.50;38.80;;;;;;5076348;28;20432;-78
2022/07/28 02:27:00;;;;;;;1.30;0.97;;;23.50;38.80;;;;;;5054657;28;20530;-78
2022/07/28 02:29:28;;;;;;;2.93;0.90;;;23.50;38.60;;;;;;5055063;28;20427;-78
2022/07/28 02:32:17;;;;;;;0.93;0.83;;;23.40;38.70;;;;;;5055242;28;20430;-78
2022/07/28 02:34:58;;;;;;;1.03;0.70;;;23.40;38.60;;;;;;5054647;28;20453;-78
2022/07/28 02:37:25;;;;;;;1.20;0.70;;;23.40;38.70;;;;;;5054855;28;20434;-78
2022/07/28 02:39:56;;;;;;;1.30;0.77;;;23.40;38.60;;;;;;5054694;28;20441;-78
2022/07/28 02:42:28;;;;;;;1.00;0.80;;;23.40;38.60;;;;;;5063278;28;20503;-78
2022/07/28 02:44:58;;;;;;;1.80;1.20;;;23.30;38.40;;;;;;5075096;28;20466;-78
2022/07/28 02:47:28;;;;;;;0.90;0.90;;;23.30;38.50;;;;;;5075962;28;20533;-78
2022/07/28 02:49:56;;;;;;;0.90;0.80;;;23.30;38.60;;;;;;5076199;28;20509;-78
2022/07/28 02:52:24;;;;;;;0.80;0.80;;;23.30;38.50;;;;;;5076530;28;20528;-78
2022/07/28 02:54:52;;;;;;;0.93;0.93;;;23.30;38.50;;;;;;5075190;28;20478;-78
2022/07/28 02:57:21;;;;;;;0.80;0.80;;;23.20;38.40;;;;;;5075880;28;20544;-78
2022/07/28 02:59:49;;;;;;;0.90;0.70;;;23.20;38.50;;;;;;5058069;28;20439;-78
2022/07/28 03:02:18;;;;;;;0.90;0.80;;;23.20;38.30;;;;;;5055480;28;20502;-78
2022/07/28 03:05:00;;;;;;;0.90;0.90;;;23.10;38.50;;;;;;5055230;28;20546;-78
2022/07/28 03:07:28;;;;;;;1.47;0.90;;;23.20;38.50;;;;;;5056174;28;20430;-78
2022/07/28 03:09:56;;;;;;;5.40;1.50;;;23.20;38.50;;;;;;5057202;28;20413;-78
2022/07/28 03:12:25;;;;;;;1.20;0.80;;;23.20;38.30;;;;;;5056918;28;20517;-78
2022/07/28 03:14:53;;;;;;;0.97;0.97;;;23.20;38.40;;;;;;5070745;28;20576;-78
2022/07/28 03:17:21;;;;;;;1.03;0.90;;;23.20;38.30;;;;;;5076326;28;20444;-78
2022/07/28 03:19:49;;;;;;;0.97;0.90;;;23.20;38.30;;;;;;5075804;28;20937;-78
2022/07/28 03:22:17;;;;;;;1.10;1.10;;;23.20;38.20;;;;;;5076599;28;20975;-78
2022/07/28 03:24:47;;;;;;;1.27;0.90;;;23.20;38.20;;;;;;5075220;28;20471;-78
2022/07/28 03:27:20;;;;;;;1.03;0.90;;;23.20;38.20;;;;;;5075226;28;20878;-78
2022/07/28 03:29:53;;;;;;;1.13;1.03;;;23.20;38.30;;;;;;5074155;28;20537;-78
2022/07/28 03:32:21;;;;;;;1.70;1.00;;;23.20;38.20;;;;;;5074739;28;20448;-78
2022/07/28 03:34:51;;;;;;;1.00;0.80;;;23.20;38.10;;;;;;5076073;28;20487;-78
2022/07/28 03:37:21;;;;;;;0.80;0.80;;;23.10;38.00;;;;;;5075504;28;21007;-78
2022/07/28 03:39:49;;;;;;;1.43;0.90;;;23.20;38.20;;;;;;5076099;28;20456;-78
2022/07/28 03:42:18;;;;;;;1.00;0.90;;;23.20;38.00;;;;;;5075363;28;20532;-78
2022/07/28 03:44:46;;;;;;;2.20;0.90;;;23.20;38.00;;;;;;5075493;28;20472;-78
2022/07/28 03:47:15;;;;;;;0.87;0.87;;;23.20;37.90;;;;;;5067231;28;20465;-78
2022/07/28 03:49:45;;;;;;;0.90;0.80;;;23.20;37.80;;;;;;5058732;28;20439;-78
2022/07/28 03:52:13;;;;;;;1.57;0.90;;;23.30;38.00;;;;;;5060272;28;20456;-78
2022/07/28 03:54:41;;;;;;;0.93;0.93;;;23.20;38.00;;;;;;5059357;28;20466;-78
2022/07/28 03:57:09;;;;;;;1.80;1.10;;;23.20;37.90;;;;;;5059281;28;20481;-78
2022/07/28 03:59:38;;;;;;;0.80;0.80;;;23.20;38.00;;;;;;5059860;28;20450;-78
2022/07/28 04:02:05;;;;;;;0.80;0.80;;;23.20;38.00;;;;;;5065993;28;20460;-78
2022/07/28 04:04:35;;;;;;;1.53;0.90;;;23.20;37.90;;;;;;5079305;28;20454;-78
2022/07/28 04:07:02;;;;;;;1.77;1.00;;;23.20;37.90;;;;;;5079566;28;20444;-78
2022/07/28 04:09:30;;;;;;;0.90;0.83;;;23.20;37.90;;;;;;5078675;28;20487;-78
2022/07/28 04:11:58;;;;;;;1.10;1.00;;;23.30;38.00;;;;;;5078562;28;20533;-78
2022/07/28 04:14:26;;;;;;;0.80;0.80;;;23.30;38.10;;;;;;5078474;28;20460;-78
2022/07/28 04:16:53;;;;;;;0.90;0.80;;;23.30;37.90;;;;;;5077818;28;20573;-79
2022/07/28 04:19:21;;;;;;;0.90;0.90;;;23.30;38.00;;;;;;5077679;28;20453;-78
2022/07/28 04:21:50;;;;;;;1.07;0.97;;;23.30;38.00;;;;;;5078019;28;20437;-78
2022/07/28 04:24:18;;;;;;;1.00;1.00;;;23.30;37.90;;;;;;5078149;28;20914;-78
2022/07/28 04:26:46;;;;;;;2.40;0.90;;;23.30;38.10;;;;;;5077389;28;20444;-78
2022/07/28 04:29:14;;;;;;;1.63;0.90;;;23.30;38.10;;;;;;5077343;28;20413;-78
2022/07/28 04:31:50;;;;;;;0.93;0.93;;;23.30;38.00;;;;;;5078314;28;20433;-78
2022/07/28 04:34:18;;;;;;;0.70;0.70;;;23.30;37.90;;;;;;5076664;28;20466;-78
2022/07/28 04:36:46;;;;;;;1.20;1.10;;;23.30;38.00;;;;;;5077261;28;20557;-78
2022/07/28 04:39:15;;;;;;;0.83;0.83;;;23.30;37.80;;;;;;5077801;28;20458;-78
2022/07/28 04:41:43;;;;;;;0.93;0.83;;;23.40;37.70;;;;;;5078239;28;20805;-78
2022/07/28 04:44:12;;;;;;;0.90;0.80;;;23.40;37.80;;;;;;5078100;28;20465;-78
2022/07/28 04:46:40;;;;;;;1.13;0.70;;;23.40;37.90;;;;;;5077404;28;20976;-78
2022/07/28 04:49:08;;;;;;;0.90;0.80;;;23.30;37.80;;;;;;5081411;28;20449;-78
2022/07/28 04:51:36;;;;;;;0.90;0.90;;;23.40;37.80;;;;;;5099086;28;20440;-78
2022/07/28 04:54:04;;;;;;;0.80;0.80;;;23.40;37.70;;;;;;5078592;28;20476;-78
2022/07/28 04:56:33;;;;;;;1.33;0.87;;;23.40;37.80;;;;;;5077319;28;20462;-78
2022/07/28 04:59:01;;;;;;;0.90;0.90;;;23.40;37.80;;;;;;5078061;28;20422;-78
2022/07/28 05:01:31;;;;;;;0.90;0.90;;;23.40;37.80;;;;;;5077811;28;20533;-78
2022/07/28 05:03:59;;;;;;;1.43;0.90;;;23.40;37.70;;;;;;5078155;28;20467;-78
2022/07/28 05:06:27;;;;;;;1.30;0.90;;;23.50;37.70;;;;;;5076340;28;20936;-78
2022/07/28 05:08:55;;;;;;;0.80;0.80;;;23.40;37.70;;;;;;5077053;28;20537;-78
2022/07/28 05:11:23;;;;;;;1.10;0.80;;;23.50;37.70;;;;;;5076923;28;20507;-78
2022/07/28 05:13:52;;;;;;;1.30;0.90;;;23.50;37.70;;;;;;5076772;28;20461;-78
2022/07/28 05:16:20;;;;;;;1.27;1.00;;;23.50;37.80;;;;;;5076751;28;20440;-78
2022/07/28 05:18:48;;;;;;;2.93;1.13;;;23.50;37.80;;;;;;5077696;28;20416;-78
2022/07/28 05:21:16;;;;;;;1.37;1.27;;;23.50;37.70;;;;;;5076864;28;20446;-78
2022/07/28 05:23:49;;;;;;;2.73;1.40;;;23.50;37.80;;;;;;5077759;28;20523;-78
2022/07/28 05:26:17;;;;;;;1.27;1.17;;;23.50;37.70;;;;;;5077714;28;20423;-78
2022/07/28 05:28:45;;;;;;;1.60;1.50;;;23.50;37.60;;;;;;5077988;28;21027;-78
2022/07/28 05:31:14;;;;;;;1.53;1.43;;;23.50;37.80;;;;;;5077448;28;20548;-78
2022/07/28 05:33:42;;;;;;;1.40;1.30;;;23.50;37.60;;;;;;5078032;28;20464;-78
2022/07/28 05:36:11;;;;;;;1.73;1.63;;;23.50;37.50;;;;;;5076691;28;20473;-78
2022/07/28 05:38:39;;;;;;;4.37;1.60;;;23.50;37.80;;;;;;5076782;28;20530;-78
2022/07/28 05:41:06;;;;;;;1.93;1.40;;;23.50;37.60;;;;;;5077495;28;20892;-78
2022/07/28 05:43:36;;;;;;;2.80;1.33;;;23.50;37.80;;;;;;5076678;28;20457;-78
2022/07/28 05:46:04;;;;;;;1.93;1.83;;;23.60;37.70;;;;;;5076376;28;20446;-78
2022/07/28 05:48:33;;;;;;;3.27;1.60;;;23.60;37.90;;;;;;5077118;28;20441;-78
2022/07/28 05:51:02;;;;;;;1.43;1.33;;;23.60;37.70;;;;;;5077750;28;20435;-78
2022/07/28 05:53:30;;;;;;;4.03;1.70;;;23.60;37.60;;;;;;5075709;28;20549;-78
2022/07/28 05:55:58;;;;;;;1.50;1.40;;;23.70;37.60;;;;;;5069260;28;20427;-78
2022/07/28 05:58:29;;;;;;;1.67;1.57;;;23.70;37.60;;;;;;5078138;28;20491;-78
2022/07/28 06:00:58;;;;;;;1.70;1.60;;;23.80;37.60;;;;;;5077576;28;20437;-78
2022/07/28 06:03:26;;;;;;;1.87;1.77;;;23.80;37.40;;;;;;5078433;28;20462;-78
2022/07/28 06:05:55;;;;;;;1.93;1.83;;;23.80;37.40;;;;;;5077042;28;20537;-78
2022/07/28 06:08:43;;;;;;;2.37;2.00;;;23.90;37.40;;;;;;5077130;28;20424;-78
2022/07/28 06:11:11;;;;;;;2.73;1.80;;;23.90;37.40;;;;;;5063834;28;20545;-78
2022/07/28 06:13:49;;;;;;;3.33;1.67;;;23.90;37.50;;;;;;5067936;28;20473;-78
2022/07/28 06:16:18;;;;;;;2.33;1.67;;;23.90;37.50;;;;;;5076651;28;20456;-78
2022/07/28 06:18:46;;;;;;;1.90;1.80;;;24.00;37.60;;;;;;5077064;28;20437;-78
2022/07/28 06:21:15;;;;;;;2.60;1.90;;;24.00;37.40;;;;;;5076375;28;20468;-79
2022/07/28 06:23:47;;;;;;;2.70;1.77;;;24.00;37.50;;;;;;5075994;28;20436;-78
2022/07/28 06:26:16;;;;;;;2.23;2.00;;;24.10;37.40;;;;;;5080402;28;20449;-78
2022/07/28 06:28:44;;;;;;;2.27;1.77;;;24.10;37.50;;;;;;5085847;28;20864;-78
2022/07/28 06:31:12;;;;;;;2.17;1.97;;;24.20;38.10;;;;;;5075771;28;20444;-78
2022/07/28 06:33:39;;;;;;;3.20;1.70;;;24.20;37.40;;;;;;5075380;28;20819;-78
2022/07/28 06:36:07;;;;;;;6.83;2.00;;;24.20;37.30;;;;;;5074624;28;20423;-78
2022/07/28 06:38:36;;;;;;;1.83;1.43;;;24.30;38.10;;;;;;5075070;28;20456;-78
2022/07/28 06:41:04;;;;;;;4.90;1.90;;;24.30;37.50;;;;;;5074559;28;20450;-77
2022/07/28 06:43:32;;;;;;;2.80;1.50;;;24.30;37.50;;;;;;5073991;28;20440;-78
2022/07/28 06:46:05;;;;;;;2.40;1.83;;;24.40;37.30;;;;;;5074406;28;20442;-78
2022/07/28 06:48:36;;;;;;;1.77;1.67;;;24.50;37.50;;;;;;5075470;28;20441;-78
2022/07/28 06:51:04;;;;;;;2.70;1.67;;;24.50;37.40;;;;;;5074884;28;20943;-78
2022/07/28 06:53:32;;;;;;;1.93;1.83;;;24.50;37.40;;;;;;5075079;28;20515;-78
2022/07/28 06:56:03;;;;;;;1.80;1.70;;;24.60;37.50;;;;;;5074462;28;20455;-78
2022/07/28 06:58:32;;;;;;;1.60;1.50;;;24.70;37.50;;;;;;5074748;28;20573;-78
2022/07/28 07:01:01;;;;;;;1.53;1.43;;;24.70;37.50;;;;;;5079457;28;20424;-78
2022/07/28 07:03:29;;;;;;;4.10;1.63;;;24.80;37.60;;;;;;5075102;28;20497;-78
2022/07/28 07:05:57;;;;;;;1.60;1.50;;;24.80;37.50;;;;;;5074586;28;20484;-78
2022/07/28 07:08:25;;;;;;;1.53;1.43;;;24.80;37.50;;;;;;5075600;28;20525;-78
2022/07/28 07:10:53;;;;;;;1.67;1.57;;;24.90;37.60;;;;;;5077275;28;20448;-78
2022/07/28 07:13:23;;;;;;;1.47;1.37;;;25.00;37.40;;;;;;5076402;28;20560;-78
2022/07/28 07:15:51;;;;;;;1.80;1.70;;;25.10;37.40;;;;;;5076266;28;20488;-78
2022/07/28 07:18:19;;;;;;;2.40;1.77;;;25.10;37.40;;;;;;5074690;28;20447;-78
2022/07/28 07:20:47;;;;;;;1.97;1.87;;;25.10;37.40;;;;;;5078617;28;20520;-78
2022/07/28 07:23:15;;;;;;;1.53;1.40;;;25.20;37.40;;;;;;5079622;28;20469;-78
2022/07/28 07:25:43;;;;;;;1.90;1.80;;;25.20;37.30;;;;;;5079332;28;20420;-78
2022/07/28 07:28:11;;;;;;;2.57;1.80;;;25.30;37.20;;;;;;5079021;28;20433;-76
2022/07/28 07:30:40;;;;;;;4.77;2.67;;;25.30;38.20;;;;;;5077142;28;20532;-78
2022/07/28 07:33:07;;;;;;;4.47;3.03;;;25.80;40.50;;;;;;5079084;28;20438;-78
2022/07/28 07:35:37;;;;;;;2.53;2.20;;;25.20;40.70;;;;;;5078573;28;20472;-78
2022/07/28 07:38:05;;;;;;;2.70;1.60;;;24.40;41.50;;;;;;5080321;28;20507;-78
2022/07/28 07:40:33;;;;;;;13.43;1.70;;;24.50;42.30;;;;;;5080528;28;20484;-78
2022/07/28 07:43:01;;;;;;;4.20;1.73;;;23.90;43.00;;;;;;5087918;28;20483;-78
2022/07/28 07:45:29;;;;;;;2.40;1.77;;;23.90;44.50;;;;;;5090482;28;20457;-78
2022/07/28 07:47:58;;;;;;;2.00;1.70;;;24.00;45.70;;;;;;5092642;28;20452;-78
2022/07/28 07:50:26;;;;;;;2.73;1.40;;;24.10;44.70;;;;;;5085118;28;20481;-78
2022/07/28 07:52:54;;;;;;;5.50;1.30;;;24.10;44.00;;;;;;5074022;28;20458;-78
2022/07/28 07:55:22;;;;;;;4.00;1.23;;;24.20;44.10;;;;;;5073123;28;20485;-78
2022/07/28 07:57:50;;;;;;;6.90;1.30;;;23.50;45.30;;;;;;5072547;28;20561;-78
2022/07/28 08:00:18;;;;;;;2.60;1.57;;;23.40;45.00;;;;;;5073458;28;20446;-78
2022/07/28 08:02:56;;;;;;;3.63;1.30;;;23.50;45.60;;;;;;5067606;28;20539;-78
2022/07/28 08:05:25;;;;;;;4.23;2.03;;;24.00;45.70;;;;;;5079796;28;20529;-78
2022/07/28 08:08:03;;;;;;;1.30;1.03;;;24.30;44.40;;;;;;5067967;28;20451;-78
2022/07/28 08:10:31;;;;;;;1.50;1.10;;;24.40;43.40;;;;;;5067024;28;20442;-78
2022/07/28 08:12:59;;;;;;;4.27;1.77;;;24.20;43.00;;;;;;5066778;28;20517;-78
2022/07/28 08:15:27;;;;;;;3.27;1.20;;;24.50;42.60;;;;;;5075553;28;20446;-77
2022/07/28 08:17:55;;;;;;;13.07;7.87;;;24.20;42.90;;;;;;5083016;28;20511;-77
2022/07/28 08:20:24;;;;;;;6.13;4.00;;;24.30;44.10;;;;;;5080245;28;20552;-77
2022/07/28 08:22:53;;;;;;;1.90;1.57;;;24.30;44.20;;;;;;5084930;28;20509;-77
2022/07/28 08:25:21;;;;;;;1.77;1.20;;;24.30;43.80;;;;;;5083415;28;20552;-77
2022/07/28 08:27:50;;;;;;;5.63;1.70;;;24.10;44.90;;;;;;5084200;28;20532;-77
2022/07/28 08:30:18;;;;;;;6.33;1.67;;;23.90;45.60;;;;;;5083846;28;20424;-77
2022/07/28 08:32:51;;;;;;;1.30;1.20;;;23.70;46.20;;;;;;5083798;28;20441;-77
2022/07/28 08:35:26;;;;;;;3.33;1.70;;;23.70;45.40;;;;;;5082735;28;20480;-77
2022/07/28 08:38:04;;;;;;;5.10;2.20;;;23.60;46.10;;;;;;5083015;28;20479;-77
2022/07/28 08:40:32;;;;;;;2.37;1.57;;;23.60;46.00;;;;;;5084237;28;20448;-77
2022/07/28 08:43:03;;;;;;;4.13;1.87;;;23.60;45.60;;;;;;5083439;28;20445;-77
2022/07/28 08:45:31;;;;;;;1.27;1.10;;;23.50;45.20;;;;;;5081674;28;20520;-77
2022/07/28 08:48:04;;;;;;;4.87;1.87;;;23.30;45.10;;;;;;5080957;28;20520;-77
2022/07/28 08:50:38;;;;;;;1.30;1.20;;;23.10;45.90;;;;;;5083018;28;20471;-79
2022/07/28 08:53:06;;;;;;;2.07;1.60;;;23.10;45.60;;;;;;5084943;28;20505;-78
2022/07/28 08:55:35;;;;;;;1.20;0.93;;;23.10;45.10;;;;;;5085505;28;20450;-78
2022/07/28 08:58:03;;;;;;;1.27;1.17;;;22.90;45.80;;;;;;5088127;28;20553;-78
2022/07/28 09:00:31;;;;;;;8.80;1.50;;;22.90;46.50;;;;;;5086268;28;20520;-78
2022/07/28 09:02:58;;;;;;;4.73;1.60;;;22.60;46.90;;;;;;5086200;28;20481;-78
2022/07/28 09:05:27;;;;;;;1.43;1.33;;;22.50;46.40;;;;;;5084650;28;20443;-77
2022/07/28 09:07:56;;;;;;;2.60;1.80;;;22.30;47.60;;;;;;5085835;28;20452;-79
2022/07/28 09:10:24;;;;;;;4.70;1.50;;;22.60;47.70;;;;;;5084400;28;20461;-78
2022/07/28 09:12:52;;;;;;;3.97;1.53;;;22.80;47.30;;;;;;5080840;28;20448;-78
2022/07/28 09:15:20;;;;;;;1.47;1.37;;;22.90;46.60;;;;;;5077869;28;20548;-77
2022/07/28 09:17:48;;;;;;;3.33;1.40;;;23.00;45.80;;;;;;5075842;28;20442;-77
2022/07/28 09:20:15;;;;;;;4.10;1.40;;;23.10;45.90;;;;;;5077770;28;20483;-77
2022/07/28 09:23:01;;;;;;;4.87;1.70;;;23.30;46.00;;;;;;5078419;28;20509;-79
2022/07/28 09:25:29;;;;;;;2.30;1.30;;;23.20;45.70;;;;;;5080768;28;20494;-79
2022/07/28 09:27:59;;;;;;;1.90;1.40;;;23.20;46.00;;;;;;5071186;28;20518;-80
2022/07/28 09:30:30;;;;;;;4.93;1.30;;;23.10;45.70;;;;;;5068867;28;20522;-78
2022/07/28 09:33:11;;;;;;;2.70;1.07;;;23.40;45.60;;;;;;5075305;28;20449;-78
2022/07/28 09:35:59;;;;;;;3.07;1.37;;;23.40;45.70;;;;;;5080390;28;20445;-78
2022/07/28 09:38:30;;;;;;;2.50;1.27;;;23.60;45.80;;;;;;5083101;28;20480;-78
2022/07/28 09:40:58;;;;;;;4.50;1.70;;;23.70;46.30;;;;;;5083469;28;20433;-78
2022/07/28 09:43:33;;;;;;;4.03;2.33;;;23.70;45.40;;;;;;5077941;28;20549;-78
2022/07/28 09:46:07;;;;;;;1.20;1.10;;;23.70;45.60;;;;;;5061488;28;21111;-78
2022/07/28 09:48:36;;;;;;;4.03;1.50;;;23.60;45.20;;;;;;5081291;28;20487;-78
2022/07/28 09:51:09;;;;;;;3.07;1.07;;;23.70;45.50;;;;;;5082452;28;20446;-78
2022/07/28 09:53:39;;;;;;;4.87;1.33;;;23.10;46.10;;;;;;5064833;28;20536;-78
2022/07/28 09:56:07;;;;;;;1.53;1.43;;;23.60;46.20;;;;;;5066163;28;20569;-78
2022/07/28 09:58:34;;;;;;;1.33;1.00;;;23.90;44.30;;;;;;5088746;28;20454;-78
2022/07/28 10:01:04;;;;;;;2.07;1.13;;;24.20;43.80;;;;;;5076597;28;20844;-78
2022/07/28 10:03:33;;;;;;;3.03;1.23;;;23.70;43.80;;;;;;5071864;28;20436;-78
2022/07/28 10:06:07;;;;;;;4.30;1.30;;;22.70;44.30;;;;;;5077925;28;20505;-77
2022/07/28 10:08:44;;;;;;;4.70;1.60;;;22.50;46.20;;;;;;5080912;28;20528;-78
2022/07/28 10:11:13;;;;;;;2.63;1.10;;;23.50;45.80;;;;;;5076600;28;20432;-77
2022/07/28 10:13:58;;;;;;;3.67;1.17;;;23.60;44.80;;;;;;5076965;28;20523;-77
2022/07/28 10:16:26;;;;;;;2.30;1.30;;;23.60;45.00;;;;;;5077653;28;20509;-78
2022/07/28 10:18:54;;;;;;;2.40;0.93;;;24.30;44.80;;;;;;5078774;28;20515;-78
2022/07/28 10:21:23;;;;;;;5.93;1.10;;;25.00;44.10;;;;;;5078682;28;20528;-78
2022/07/28 10:23:53;;;;;;;3.83;0.90;;;25.10;41.70;;;;;;5083367;28;20556;-77
2022/07/28 10:26:25;;;;;;;1.10;1.00;;;25.60;42.60;;;;;;5080174;28;20448;-78
2022/07/28 10:28:53;;;;;;;3.43;3.13;;;25.80;40.30;;;;;;5079259;28;20512;-78
2022/07/28 10:31:35;;;;;;;2.93;1.00;;;25.40;41.50;;;;;;5078311;28;20452;-78
2022/07/28 10:34:03;;;;;;;5.97;1.17;;;25.00;43.70;;;;;;5077988;28;20469;-78
2022/07/28 10:36:31;;;;;;;9.13;1.53;;;24.90;41.90;;;;;;5061926;28;20414;-78
2022/07/28 10:39:04;;;;;;;4.83;1.23;;;25.10;42.00;;;;;;5069830;28;20539;-78
2022/07/28 10:41:38;;;;;;;1.53;1.13;;;25.70;43.20;;;;;;5070353;28;20521;-78
2022/07/28 10:44:08;;;;;;;4.00;1.20;;;25.90;40.30;;;;;;5072176;28;20457;-77
2022/07/28 10:46:35;;;;;;;4.70;1.87;;;26.60;40.60;;;;;;5069965;28;20449;-77
2022/07/28 10:49:03;;;;;;;2.40;1.00;;;27.00;41.40;;;;;;5064244;28;20446;-77
2022/07/28 10:51:36;;;;;;;2.70;1.73;;;26.60;38.50;;;;;;5051265;28;20515;-78
2022/07/28 10:54:28;;;;;;;3.80;1.10;;;27.00;38.80;;;;;;5050588;28;20458;-77
2022/07/28 10:56:56;;;;;;;1.97;1.10;;;26.10;40.00;;;;;;5051021;28;20529;-77
2022/07/28 10:59:39;;;;;;;1.83;1.37;;;26.10;39.60;;;;;;5051158;28;20452;-77
2022/07/28 11:02:07;;;;;;;1.83;1.00;;;26.50;39.10;;;;;;5051446;28;20516;-77
2022/07/28 11:04:51;;;;;;;1.93;1.03;;;27.20;38.20;;;;;;5051135;28;20554;-77
2022/07/28 11:07:19;;;;;;;1.53;1.20;;;26.50;38.20;;;;;;5050185;28;20409;-77
2022/07/28 11:09:49;;;;;;;1.20;1.10;;;25.30;40.80;;;;;;5050585;28;20934;-77
2022/07/28 11:12:16;;;;;;;1.00;1.00;;;26.00;40.40;;;;;;5069986;28;20443;-77
2022/07/28 11:14:45;;;;;;;1.77;1.20;;;26.40;38.80;;;;;;5053972;28;20445;-77
2022/07/28 11:17:18;;;;;;;1.27;1.20;;;26.90;38.20;;;;;;5050204;28;20945;-77
2022/07/28 11:19:55;;;;;;;1.27;1.17;;;27.00;37.90;;;;;;5056946;28;20463;-77
2022/07/28 11:22:43;;;;;;;1.00;0.90;;;27.20;36.50;;;;;;5053007;28;20417;-77
2022/07/28 11:25:14;;;;;;;1.77;1.20;;;27.40;36.80;;;;;;5050033;28;20462;-77
2022/07/28 11:28:02;;;;;;;2.10;0.93;;;27.50;36.00;;;;;;5051845;28;20465;-77
2022/07/28 11:30:52;;;;;;;3.30;0.90;;;27.40;36.40;;;;;;5053169;28;20530;-76
2022/07/28 11:33:20;;;;;;;2.33;1.10;;;27.40;36.20;;;;;;5052994;28;20409;-77
2022/07/28 11:35:58;;;;;;;1.00;0.80;;;27.20;37.10;;;;;;5065737;28;20416;-78
2022/07/28 11:38:26;;;;;;;0.93;0.93;;;27.20;36.40;;;;;;5066439;28;20455;-78
2022/07/28 11:40:56;;;;;;;2.67;1.30;;;27.00;37.10;;;;;;5072849;28;20527;-76
2022/07/28 11:43:34;;;;;;;4.50;4.10;;;27.00;36.30;;;;;;5074083;28;20472;-78
2022/07/28 11:46:21;;;;;;;8.33;5.17;;;26.80;36.80;;;;;;5069889;28;20427;-76
2022/07/28 11:49:20;;;;;;;2.50;1.90;;;26.80;37.10;;;;;;5067751;28;20447;-78
2022/07/28 11:52:14;;;;;;;1.50;1.40;;;26.90;37.00;;;;;;5014688;28;20420;-76
2022/07/28 11:54:48;;;;;;;2.50;1.30;;;26.90;35.90;;;;;;5049911;28;20432;-76
2022/07/28 11:57:18;;;;;;;1.33;1.00;;;27.00;35.40;;;;;;5051131;28;20529;-76
2022/07/28 11:59:52;;;;;;;2.40;1.10;;;27.50;36.10;;;;;;5055723;28;20573;-77
2022/07/28 12:02:21;;;;;;;1.47;1.20;;;28.50;34.50;;;;;;5071639;28;20417;-78
2022/07/28 12:05:01;;;;;;;1.97;1.30;;;29.50;32.80;;;;;;5073637;28;20525;-77
2022/07/28 12:07:33;;;;;;;1.63;1.20;;;30.00;32.50;;;;;;5077618;28;20544;-77
2022/07/28 12:10:01;;;;;;;6.60;1.37;;;29.20;32.20;;;;;;5077378;28;20453;-78
2022/07/28 12:12:30;;;;;;;1.80;0.73;;;28.80;32.80;;;;;;5075943;28;20517;-77
2022/07/28 12:14:58;;;;;;;1.57;1.10;;;29.20;33.40;;;;;;5075128;28;20548;-77
2022/07/28 12:17:33;;;;;;;2.20;1.83;;;28.90;32.40;;;;;;5075936;28;20449;-77
2022/07/28 12:20:07;;;;;;;1.27;1.03;;;28.60;33.10;;;;;;5073492;28;20448;-77
2022/07/28 12:22:40;;;;;;;2.20;0.87;;;29.40;34.60;;;;;;5077549;28;20456;-77
2022/07/28 12:25:09;;;;;;;3.13;0.83;;;29.80;31.20;;;;;;5074851;28;20564;-77
2022/07/28 12:27:42;;;;;;;0.93;0.80;;;29.20;31.30;;;;;;5077733;28;20452;-77
2022/07/28 12:30:13;;;;;;;1.33;1.20;;;29.40;31.50;;;;;;5077636;28;20499;-77
2022/07/28 12:32:45;;;;;;;1.40;1.10;;;30.50;30.00;;;;;;5075744;28;20847;-77
2022/07/28 12:35:13;;;;;;;1.47;1.03;;;30.20;30.50;;;;;;5067457;28;20470;-77
2022/07/28 12:37:43;;;;;;;1.27;1.17;;;29.70;31.70;;;;;;5055312;28;20553;-77
2022/07/28 12:40:13;;;;;;;2.63;0.90;;;29.40;32.60;;;;;;5072940;28;20544;-77
2022/07/28 12:42:42;;;;;;;2.93;1.17;;;29.10;33.40;;;;;;5075504;28;20424;-77
2022/07/28 12:45:11;;;;;;;3.60;0.80;;;28.80;33.20;;;;;;5064019;28;20462;-77
2022/07/28 12:47:39;;;;;;;1.47;1.00;;;28.60;33.20;;;;;;5054914;28;20461;-78
2022/07/28 12:50:09;;;;;;;1.10;0.80;;;28.80;34.80;;;;;;5057873;28;20879;-78
2022/07/28 12:52:37;;;;;;;7.60;4.10;;;31.20;33.10;;;;;;5070743;28;20953;-78
2022/07/28 12:55:22;;;;;;;2.80;1.80;;;33.90;30.80;;;;;;5077688;28;20468;-78
2022/07/28 12:57:52;;;;;;;1.63;1.30;;;36.20;27.30;;;;;;5059607;28;20438;-77
2022/07/28 13:00:22;;;;;;;1.60;1.00;;;34.50;26.50;;;;;;5074615;28;20493;-78
2022/07/28 13:02:52;;;;;;;3.13;1.03;;;33.20;27.20;;;;;;5078548;28;20519;-78
2022/07/28 13:05:29;;;;;;;1.13;1.10;;;32.60;29.00;;;;;;5079498;28;20522;-78